createdAt,value
2017-10-04T00:00:23.997Z,0
2017-10-04T00:01:33.284Z,0
2017-10-04T00:02:42.303Z,0
2017-10-04T00:03:51.588Z,0
2017-10-04T00:05:00.394Z,0
2017-10-04T00:06:09.052Z,0
2017-10-04T00:07:18.379Z,0
2017-10-04T00:08:27.354Z,0
2017-10-04T00:09:36.317Z,0
2017-10-04T00:10:45.771Z,0
2017-10-04T00:11:54.742Z,0
2017-10-04T00:13:03.701Z,0
2017-10-04T00:14:13.296Z,0
2017-10-04T00:15:21.940Z,0
2017-10-04T00:16:31.049Z,0
2017-10-04T00:17:40.024Z,0
2017-10-04T00:18:49.314Z,0
2017-10-04T00:19:57.973Z,0
2017-10-04T00:21:06.946Z,0
2017-10-04T00:22:16.243Z,0
2017-10-04T00:23:25.552Z,0
2017-10-04T00:24:34.214Z,0
2017-10-04T00:25:43.184Z,0
2017-10-04T00:26:52.169Z,0
2017-10-04T00:28:01.469Z,0
2017-10-04T00:29:10.135Z,0
2017-10-04T00:30:19.095Z,0
2017-10-04T00:31:28.071Z,0
2017-10-04T00:32:37.665Z,0
2017-10-04T00:33:46.321Z,0
2017-10-04T00:34:55.008Z,0
2017-10-04T00:36:04.287Z,0
2017-10-04T00:37:13.578Z,0
2017-10-04T00:38:22.247Z,0
2017-10-04T00:39:31.535Z,0
2017-10-04T00:40:40.840Z,0
2017-10-04T00:41:50.134Z,0
2017-10-04T00:42:58.777Z,0
2017-10-04T00:44:07.761Z,0
2017-10-04T00:45:16.559Z,0
2017-10-04T00:46:25.852Z,0
2017-10-04T00:47:34.527Z,0
2017-10-04T00:48:44.124Z,0
2017-10-04T00:49:53.097Z,0
2017-10-04T00:51:02.058Z,0
2017-10-04T00:52:12.284Z,0
2017-10-04T00:53:21.568Z,0
2017-10-04T00:54:30.526Z,0
2017-10-04T00:55:40.131Z,0
2017-10-04T00:56:49.196Z,0
2017-10-04T00:57:58.161Z,0
2017-10-04T00:59:07.131Z,0
2017-10-04T01:00:16.103Z,0
2017-10-04T01:01:25.064Z,0
2017-10-04T01:02:34.342Z,0
2017-10-04T01:03:43.419Z,0
2017-10-04T01:04:52.377Z,0
2017-10-04T01:06:01.344Z,0
2017-10-04T01:07:10.380Z,0
2017-10-04T01:08:19.176Z,0
2017-10-04T01:09:28.145Z,0
2017-10-04T01:10:37.107Z,0
2017-10-04T01:11:46.384Z,0
2017-10-04T01:12:55.350Z,0
2017-10-04T01:14:04.468Z,0
2017-10-04T01:15:13.440Z,0
2017-10-04T01:16:22.720Z,0
2017-10-04T01:17:32.004Z,0
2017-10-04T01:18:40.954Z,0
2017-10-04T01:19:50.377Z,0
2017-10-04T01:20:59.351Z,0
2017-10-04T01:22:08.625Z,0
2017-10-04T01:23:17.597Z,0
2017-10-04T01:24:27.210Z,0
2017-10-04T01:25:36.510Z,0
2017-10-04T01:26:45.472Z,0
2017-10-04T01:27:54.749Z,0
2017-10-04T01:29:04.277Z,0
2017-10-04T01:30:13.241Z,0
2017-10-04T01:31:21.896Z,0
2017-10-04T01:32:30.860Z,0
2017-10-04T01:33:39.829Z,0
2017-10-04T01:34:48.798Z,0
2017-10-04T01:35:58.087Z,0
2017-10-04T01:37:07.521Z,0
2017-10-04T01:38:16.483Z,0
2017-10-04T01:39:26.086Z,0
2017-10-04T01:40:34.775Z,0
2017-10-04T01:41:44.072Z,0
2017-10-04T01:42:53.501Z,0
2017-10-04T01:44:02.163Z,0
2017-10-04T01:45:11.453Z,0
2017-10-04T01:46:20.427Z,0
2017-10-04T01:47:29.384Z,0
2017-10-04T01:48:38.804Z,0
2017-10-04T01:49:47.477Z,0
2017-10-04T01:50:56.762Z,0
2017-10-04T01:52:05.418Z,0
2017-10-04T01:53:14.083Z,0
2017-10-04T01:54:22.894Z,0
2017-10-04T01:55:32.223Z,0
2017-10-04T01:56:41.193Z,0
2017-10-04T01:57:49.848Z,0
2017-10-04T01:58:59.492Z,0
2017-10-04T02:00:08.831Z,0
2017-10-04T02:01:17.802Z,0
2017-10-04T02:02:26.784Z,0
2017-10-04T02:03:35.435Z,0
2017-10-04T02:04:44.410Z,0
2017-10-04T02:05:53.225Z,0
2017-10-04T02:07:01.891Z,0
2017-10-04T02:08:10.852Z,0
2017-10-04T02:09:20.130Z,0
2017-10-04T02:10:29.417Z,0
2017-10-04T02:11:39.178Z,0
2017-10-04T02:12:48.143Z,0
2017-10-04T02:13:57.421Z,0
2017-10-04T02:15:06.432Z,0
2017-10-04T02:16:15.729Z,0
2017-10-04T02:17:25.166Z,0
2017-10-04T02:18:34.144Z,0
2017-10-04T02:19:43.427Z,0
2017-10-04T02:20:52.095Z,0
2017-10-04T02:22:01.064Z,0
2017-10-04T02:23:10.029Z,0
2017-10-04T02:24:19.297Z,0
2017-10-04T02:25:28.270Z,0
2017-10-04T02:26:37.540Z,0
2017-10-04T02:27:46.533Z,0
2017-10-04T02:28:55.185Z,0
2017-10-04T02:30:04.141Z,0
2017-10-04T02:31:13.750Z,0
2017-10-04T02:32:23.036Z,0
2017-10-04T02:33:32.627Z,0
2017-10-04T02:34:42.543Z,0
2017-10-04T02:35:51.519Z,0
2017-10-04T02:37:01.136Z,0
2017-10-04T02:38:10.111Z,0
2017-10-04T02:39:19.075Z,0
2017-10-04T02:40:28.372Z,0
2017-10-04T02:41:37.332Z,0
2017-10-04T02:42:46.306Z,0
2017-10-04T02:43:55.286Z,0
2017-10-04T02:45:04.901Z,0
2017-10-04T02:46:14.177Z,0
2017-10-04T02:47:23.460Z,0
2017-10-04T02:48:32.422Z,0
2017-10-04T02:49:41.074Z,0
2017-10-04T02:50:49.737Z,0
2017-10-04T02:51:59.166Z,0
2017-10-04T02:53:08.775Z,0
2017-10-04T02:54:17.425Z,0
2017-10-04T02:55:27.338Z,0
2017-10-04T02:56:36.009Z,0
2017-10-04T02:57:44.974Z,0
2017-10-04T02:58:54.244Z,0
2017-10-04T03:00:03.216Z,0
2017-10-04T03:01:12.806Z,0
2017-10-04T03:02:22.396Z,0
2017-10-04T03:03:31.362Z,0
2017-10-04T03:04:40.649Z,0
2017-10-04T03:05:49.619Z,0
2017-10-04T03:06:58.573Z,0
2017-10-04T03:08:07.537Z,0
2017-10-04T03:09:16.511Z,0
2017-10-04T03:10:26.121Z,0
2017-10-04T03:11:35.725Z,0
2017-10-04T03:12:44.379Z,0
2017-10-04T03:13:53.353Z,0
2017-10-04T03:15:02.340Z,0
2017-10-04T03:16:11.059Z,0
2017-10-04T03:17:19.761Z,0
2017-10-04T03:18:28.747Z,0
2017-10-04T03:19:38.014Z,0
2017-10-04T03:20:47.592Z,0
2017-10-04T03:21:56.555Z,0
2017-10-04T03:23:05.829Z,0
2017-10-04T03:24:14.797Z,0
2017-10-04T03:25:23.452Z,0
2017-10-04T03:26:32.572Z,0
2017-10-04T03:27:41.545Z,0
2017-10-04T03:28:50.815Z,0
2017-10-04T03:30:00.727Z,0
2017-10-04T03:31:09.386Z,0
2017-10-04T03:32:18.380Z,0
2017-10-04T03:33:27.670Z,0
2017-10-04T03:34:36.657Z,0
2017-10-04T03:35:45.306Z,0
2017-10-04T03:36:54.287Z,0
2017-10-04T03:38:03.083Z,0
2017-10-04T03:39:11.745Z,0
2017-10-04T03:40:21.340Z,0
2017-10-04T03:41:30.616Z,0
2017-10-04T03:42:39.589Z,0
2017-10-04T03:43:48.701Z,0
2017-10-04T03:44:57.661Z,0
2017-10-04T03:46:06.326Z,0
2017-10-04T03:47:15.285Z,0
2017-10-04T03:48:24.259Z,0
2017-10-04T03:49:33.327Z,0
2017-10-04T03:50:42.298Z,0
2017-10-04T03:51:50.957Z,0
2017-10-04T03:52:59.606Z,0
2017-10-04T03:54:08.578Z,0
2017-10-04T03:55:17.537Z,0
2017-10-04T03:56:26.510Z,0
2017-10-04T03:57:35.528Z,0
2017-10-04T03:58:45.121Z,0
2017-10-04T03:59:54.412Z,0
2017-10-04T04:01:03.208Z,0
2017-10-04T04:02:12.509Z,0
2017-10-04T04:03:21.172Z,0
2017-10-04T04:04:30.457Z,0
2017-10-04T04:05:39.415Z,0
2017-10-04T04:06:48.128Z,0
2017-10-04T04:07:57.090Z,0
2017-10-04T04:09:06.386Z,0
2017-10-04T04:10:15.975Z,0
2017-10-04T04:11:24.946Z,0
2017-10-04T04:12:34.222Z,0
2017-10-04T04:13:42.877Z,0
2017-10-04T04:14:51.847Z,0
2017-10-04T04:16:01.457Z,0
2017-10-04T04:17:10.745Z,0
2017-10-04T04:18:20.343Z,0
2017-10-04T04:19:29.296Z,0
2017-10-04T04:20:38.257Z,0
2017-10-04T04:21:47.227Z,0
2017-10-04T04:22:56.499Z,0
2017-10-04T04:24:06.209Z,0
2017-10-04T04:25:14.875Z,0
2017-10-04T04:26:24.157Z,0
2017-10-04T04:27:33.425Z,0
2017-10-04T04:28:42.718Z,0
2017-10-04T04:29:51.398Z,0
2017-10-04T04:31:00.056Z,0
2017-10-04T04:32:09.340Z,0
2017-10-04T04:33:18.929Z,0
2017-10-04T04:34:28.194Z,0
2017-10-04T04:35:37.160Z,0
2017-10-04T04:36:45.815Z,0
2017-10-04T04:37:54.473Z,0
2017-10-04T04:39:03.441Z,0
2017-10-04T04:40:12.101Z,0
2017-10-04T04:41:20.919Z,0
2017-10-04T04:42:29.886Z,0
2017-10-04T04:43:39.164Z,0
2017-10-04T04:44:48.128Z,0
2017-10-04T04:45:57.134Z,0
2017-10-04T04:47:06.406Z,0
2017-10-04T04:48:15.369Z,0
2017-10-04T04:49:24.021Z,0
2017-10-04T04:50:33.294Z,0
2017-10-04T04:51:42.265Z,0
2017-10-04T04:52:51.876Z,0
2017-10-04T04:54:00.888Z,0
2017-10-04T04:55:10.246Z,0
2017-10-04T04:56:18.918Z,0
2017-10-04T04:57:28.214Z,0
2017-10-04T04:58:36.854Z,0
2017-10-04T04:59:46.153Z,0
2017-10-04T05:00:55.125Z,0
2017-10-04T05:02:04.441Z,0
2017-10-04T05:03:13.815Z,0
2017-10-04T05:04:23.105Z,0
2017-10-04T05:05:32.411Z,0
2017-10-04T05:06:41.397Z,0
2017-10-04T05:07:50.053Z,0
2017-10-04T05:08:59.380Z,0
2017-10-04T05:10:08.086Z,0
2017-10-04T05:11:17.053Z,0
2017-10-04T05:12:25.767Z,0
2017-10-04T05:13:34.777Z,0
2017-10-04T05:14:43.460Z,0
2017-10-04T05:15:53.090Z,0
2017-10-04T05:17:02.048Z,0
2017-10-04T05:18:11.030Z,0
2017-10-04T05:19:20.007Z,0
2017-10-04T05:20:29.105Z,4
2017-10-04T05:21:38.235Z,4
2017-10-04T05:22:47.830Z,8
2017-10-04T05:23:56.926Z,4
2017-10-04T05:25:05.884Z,4
2017-10-04T05:26:14.929Z,8
2017-10-04T05:27:24.199Z,4
2017-10-04T05:28:33.521Z,8
2017-10-04T05:29:42.544Z,12
2017-10-04T05:30:51.871Z,12
2017-10-04T05:32:01.231Z,12
2017-10-04T05:33:11.220Z,12
2017-10-04T05:34:20.229Z,20
2017-10-04T05:35:29.841Z,20
2017-10-04T05:36:38.888Z,20
2017-10-04T05:37:48.164Z,20
2017-10-04T05:38:57.464Z,20
2017-10-04T05:40:06.509Z,20
2017-10-04T05:41:15.528Z,24
2017-10-04T05:42:24.548Z,32
2017-10-04T05:43:33.236Z,40
2017-10-04T05:44:42.891Z,48
2017-10-04T05:45:52.587Z,52
2017-10-04T05:47:01.250Z,56
2017-10-04T05:48:10.573Z,52
2017-10-04T05:49:19.283Z,56
2017-10-04T05:50:28.713Z,56
2017-10-04T05:51:38.044Z,68
2017-10-04T05:52:47.067Z,84
2017-10-04T05:53:56.045Z,96
2017-10-04T05:55:05.011Z,92
2017-10-04T05:56:14.587Z,92
2017-10-04T05:57:23.243Z,112
2017-10-04T05:58:32.218Z,128
2017-10-04T05:59:41.193Z,120
2017-10-04T06:00:50.791Z,108
2017-10-04T06:01:59.486Z,120
2017-10-04T06:03:08.569Z,144
2017-10-04T06:04:17.255Z,176
2017-10-04T06:05:26.229Z,220
2017-10-04T06:06:34.939Z,256
2017-10-04T06:07:44.683Z,272
2017-10-04T06:08:53.388Z,264
2017-10-04T06:10:02.691Z,212
2017-10-04T06:11:11.974Z,204
2017-10-04T06:12:20.954Z,252
2017-10-04T06:13:30.285Z,304
2017-10-04T06:14:39.894Z,316
2017-10-04T06:15:48.882Z,312
2017-10-04T06:16:57.859Z,364
2017-10-04T06:18:06.514Z,404
2017-10-04T06:19:15.578Z,460
2017-10-04T06:20:24.242Z,512
2017-10-04T06:21:32.912Z,552
2017-10-04T06:22:41.588Z,640
2017-10-04T06:23:50.561Z,740
2017-10-04T06:24:59.637Z,764
2017-10-04T06:26:08.291Z,692
2017-10-04T06:27:17.261Z,632
2017-10-04T06:28:26.244Z,704
2017-10-04T06:29:35.552Z,788
2017-10-04T06:30:44.362Z,800
2017-10-04T06:31:53.700Z,840
2017-10-04T06:33:02.693Z,900
2017-10-04T06:34:11.975Z,988
2017-10-04T06:35:20.688Z,1100
2017-10-04T06:36:30.029Z,1184
2017-10-04T06:37:38.720Z,1116
2017-10-04T06:38:48.030Z,1012
2017-10-04T06:39:57.006Z,1044
2017-10-04T06:41:05.985Z,1084
2017-10-04T06:42:15.276Z,1128
2017-10-04T06:43:24.564Z,1080
2017-10-04T06:44:33.220Z,1016
2017-10-04T06:45:42.502Z,972
2017-10-04T06:46:51.151Z,936
2017-10-04T06:48:00.842Z,968
2017-10-04T06:49:10.432Z,1032
2017-10-04T06:50:19.108Z,1060
2017-10-04T06:51:28.100Z,1088
2017-10-04T06:52:38.025Z,1080
2017-10-04T06:53:47.203Z,1084
2017-10-04T06:54:56.814Z,1076
2017-10-04T06:56:06.089Z,1044
2017-10-04T06:57:15.719Z,1052
2017-10-04T06:58:24.708Z,1096
2017-10-04T06:59:34.629Z,1180
2017-10-04T07:00:43.592Z,1212
2017-10-04T07:01:52.642Z,1040
2017-10-04T07:03:02.041Z,860
2017-10-04T07:04:11.950Z,872
2017-10-04T07:05:21.614Z,800
2017-10-04T07:06:30.603Z,816
2017-10-04T07:07:39.370Z,884
2017-10-04T07:08:48.667Z,904
2017-10-04T07:09:57.960Z,904
2017-10-04T07:11:06.776Z,824
2017-10-04T07:12:15.671Z,820
2017-10-04T07:13:24.798Z,836
2017-10-04T07:14:34.138Z,764
2017-10-04T07:15:43.120Z,760
2017-10-04T07:16:52.406Z,728
2017-10-04T07:18:01.396Z,568
2017-10-04T07:19:10.673Z,584
2017-10-04T07:20:19.968Z,712
2017-10-04T07:21:28.638Z,768
2017-10-04T07:22:37.637Z,708
2017-10-04T07:23:46.623Z,668
2017-10-04T07:24:55.336Z,584
2017-10-04T07:26:04.017Z,504
2017-10-04T07:27:13.005Z,668
2017-10-04T07:28:22.124Z,804
2017-10-04T07:29:31.411Z,812
2017-10-04T07:30:40.412Z,912
2017-10-04T07:31:49.078Z,1112
2017-10-04T07:32:57.739Z,1028
2017-10-04T07:34:06.733Z,1144
2017-10-04T07:35:15.706Z,1408
2017-10-04T07:36:24.680Z,1432
2017-10-04T07:37:33.662Z,1336
2017-10-04T07:38:42.320Z,1180
2017-10-04T07:39:51.290Z,1184
2017-10-04T07:40:59.945Z,1300
2017-10-04T07:42:09.237Z,1268
2017-10-04T07:43:18.573Z,1452
2017-10-04T07:44:27.284Z,1176
2017-10-04T07:45:36.134Z,1108
2017-10-04T07:46:45.108Z,1156
2017-10-04T07:47:54.733Z,1308
2017-10-04T07:49:04.015Z,1544
2017-10-04T07:50:13.297Z,1652
2017-10-04T07:51:22.283Z,1792
2017-10-04T07:52:31.283Z,2160
2017-10-04T07:53:40.584Z,2268
2017-10-04T07:54:49.228Z,2408
2017-10-04T07:55:57.894Z,2440
2017-10-04T07:57:07.026Z,2028
2017-10-04T07:58:16.326Z,2200
2017-10-04T07:59:26.263Z,2080
2017-10-04T08:00:34.937Z,2072
2017-10-04T08:01:43.582Z,1656
2017-10-04T08:02:53.033Z,1544
2017-10-04T08:04:02.000Z,1400
2017-10-04T08:05:10.967Z,1044
2017-10-04T08:06:19.632Z,1032
2017-10-04T08:07:28.597Z,1316
2017-10-04T08:08:37.427Z,1244
2017-10-04T08:09:46.713Z,1468
2017-10-04T08:10:55.674Z,1688
2017-10-04T08:12:04.334Z,1720
2017-10-04T08:13:12.973Z,1864
2017-10-04T08:14:22.247Z,2060
2017-10-04T08:15:31.539Z,2356
2017-10-04T08:16:40.511Z,2500
2017-10-04T08:17:49.487Z,2576
2017-10-04T08:18:59.104Z,2624
2017-10-04T08:20:08.387Z,2532
2017-10-04T08:21:17.977Z,2376
2017-10-04T08:22:27.581Z,2192
2017-10-04T08:23:36.242Z,1968
2017-10-04T08:24:44.897Z,1804
2017-10-04T08:25:54.020Z,1732
2017-10-04T08:27:02.981Z,1740
2017-10-04T08:28:12.571Z,1788
2017-10-04T08:29:22.186Z,1844
2017-10-04T08:30:31.152Z,1812
2017-10-04T08:31:40.213Z,1796
2017-10-04T08:32:49.214Z,1884
2017-10-04T08:33:58.816Z,1980
2017-10-04T08:35:08.107Z,1960
2017-10-04T08:36:17.399Z,1988
2017-10-04T08:37:26.472Z,2208
2017-10-04T08:38:35.748Z,2432
2017-10-04T08:39:45.090Z,2384
2017-10-04T08:40:54.380Z,2216
2017-10-04T08:42:03.031Z,2016
2017-10-04T08:43:12.466Z,1696
2017-10-04T08:44:21.769Z,1444
2017-10-04T08:45:31.069Z,1356
2017-10-04T08:46:40.359Z,1420
2017-10-04T08:47:49.023Z,1376
2017-10-04T08:48:57.707Z,1304
2017-10-04T08:50:07.327Z,1152
2017-10-04T08:51:16.280Z,1124
2017-10-04T08:52:24.936Z,1216
2017-10-04T08:53:33.921Z,1336
2017-10-04T08:54:43.546Z,1364
2017-10-04T08:55:52.842Z,1532
2017-10-04T08:57:02.454Z,1676
2017-10-04T08:58:12.375Z,1912
2017-10-04T08:59:21.054Z,1708
2017-10-04T09:00:30.494Z,1792
2017-10-04T09:01:39.787Z,1700
2017-10-04T09:02:49.062Z,1800
2017-10-04T09:03:58.066Z,1640
2017-10-04T09:05:07.341Z,1584
2017-10-04T09:06:16.455Z,1452
2017-10-04T09:07:25.725Z,1552
2017-10-04T09:08:35.005Z,1416
2017-10-04T09:09:44.905Z,1280
2017-10-04T09:10:53.889Z,1192
2017-10-04T09:12:02.550Z,1348
2017-10-04T09:13:12.155Z,1412
2017-10-04T09:14:21.135Z,1544
2017-10-04T09:15:30.115Z,1584
2017-10-04T09:16:39.103Z,1644
2017-10-04T09:17:48.405Z,1632
2017-10-04T09:18:57.366Z,1520
2017-10-04T09:20:06.652Z,1504
2017-10-04T09:21:15.926Z,1584
2017-10-04T09:22:25.203Z,1648
2017-10-04T09:23:34.186Z,1672
2017-10-04T09:24:43.167Z,1716
2017-10-04T09:25:52.136Z,1880
2017-10-04T09:27:02.049Z,2064
2017-10-04T09:28:11.337Z,2420
2017-10-04T09:29:20.945Z,2124
2017-10-04T09:30:30.292Z,2084
2017-10-04T09:31:39.586Z,1760
2017-10-04T09:32:48.558Z,1576
2017-10-04T09:33:57.541Z,1492
2017-10-04T09:35:06.838Z,1688
2017-10-04T09:36:15.806Z,1792
2017-10-04T09:37:25.398Z,1916
2017-10-04T09:38:34.714Z,1964
2017-10-04T09:39:43.862Z,1940
2017-10-04T09:40:53.553Z,2012
2017-10-04T09:42:02.869Z,1968
2017-10-04T09:43:11.888Z,2136
2017-10-04T09:44:21.267Z,2272
2017-10-04T09:45:30.372Z,2244
2017-10-04T09:46:39.559Z,2208
2017-10-04T09:47:49.251Z,2204
2017-10-04T09:48:58.230Z,2228
2017-10-04T09:50:07.878Z,2188
2017-10-04T09:51:17.193Z,2156
2017-10-04T09:52:26.669Z,2156
2017-10-04T09:53:35.361Z,2264
2017-10-04T09:54:44.683Z,2388
2017-10-04T09:55:54.635Z,2244
2017-10-04T09:57:03.301Z,2432
2017-10-04T09:58:12.467Z,2516
2017-10-04T09:59:22.091Z,2444
2017-10-04T10:00:32.398Z,2404
2017-10-04T10:01:41.041Z,2192
2017-10-04T10:02:50.008Z,2204
2017-10-04T10:03:58.666Z,2360
2017-10-04T10:05:07.673Z,2456
2017-10-04T10:06:17.294Z,2556
2017-10-04T10:07:26.887Z,2540
2017-10-04T10:08:35.886Z,2588
2017-10-04T10:09:46.148Z,2560
2017-10-04T10:10:56.064Z,2232
2017-10-04T10:12:05.075Z,2400
2017-10-04T10:13:14.114Z,2592
2017-10-04T10:14:23.414Z,2584
2017-10-04T10:15:32.729Z,2640
2017-10-04T10:16:41.419Z,2708
2017-10-04T10:17:50.706Z,2640
2017-10-04T10:18:59.356Z,2840
2017-10-04T10:20:08.955Z,2904
2017-10-04T10:21:18.535Z,2556
2017-10-04T10:22:27.502Z,2156
2017-10-04T10:23:36.162Z,2028
2017-10-04T10:24:45.441Z,1944
2017-10-04T10:25:54.417Z,1656
2017-10-04T10:27:03.102Z,1444
2017-10-04T10:28:11.785Z,1400
2017-10-04T10:29:20.778Z,1376
2017-10-04T10:30:29.787Z,1068
2017-10-04T10:31:39.074Z,1492
2017-10-04T10:32:48.197Z,2108
2017-10-04T10:33:57.193Z,2376
2017-10-04T10:35:06.170Z,2444
2017-10-04T10:36:15.472Z,1416
2017-10-04T10:37:24.134Z,1080
2017-10-04T10:38:32.946Z,1500
2017-10-04T10:39:42.005Z,1236
2017-10-04T10:40:51.350Z,1056
2017-10-04T10:42:00.667Z,1304
2017-10-04T10:43:09.327Z,1312
2017-10-04T10:44:18.342Z,1364
2017-10-04T10:45:27.318Z,1836
2017-10-04T10:46:36.014Z,1924
2017-10-04T10:47:44.693Z,1896
2017-10-04T10:48:53.670Z,1364
2017-10-04T10:50:02.447Z,1472
2017-10-04T10:51:11.435Z,1516
2017-10-04T10:52:21.743Z,1408
2017-10-04T10:53:31.151Z,1316
2017-10-04T10:54:39.844Z,1012
2017-10-04T10:55:48.822Z,1264
2017-10-04T10:56:57.495Z,1420
2017-10-04T10:58:06.478Z,1304
2017-10-04T10:59:15.149Z,1272
2017-10-04T11:00:24.442Z,1676
2017-10-04T11:01:33.520Z,2088
2017-10-04T11:02:42.571Z,1936
2017-10-04T11:03:51.574Z,2088
2017-10-04T11:05:00.847Z,1816
2017-10-04T11:06:10.508Z,1744
2017-10-04T11:07:19.238Z,1772
2017-10-04T11:08:27.916Z,2036
2017-10-04T11:09:36.897Z,2040
2017-10-04T11:10:45.874Z,2036
2017-10-04T11:11:54.847Z,1796
2017-10-04T11:13:03.844Z,1868
2017-10-04T11:14:13.142Z,2180
2017-10-04T11:15:22.129Z,2372
2017-10-04T11:16:31.427Z,2040
2017-10-04T11:17:40.398Z,1924
2017-10-04T11:18:49.990Z,2332
2017-10-04T11:19:59.292Z,2448
2017-10-04T11:21:07.968Z,2084
2017-10-04T11:22:17.262Z,2000
2017-10-04T11:23:26.255Z,2204
2017-10-04T11:24:35.245Z,1932
2017-10-04T11:25:44.228Z,1708
2017-10-04T11:26:53.190Z,1916
2017-10-04T11:28:02.201Z,1980
2017-10-04T11:29:11.815Z,2300
2017-10-04T11:30:20.948Z,2284
2017-10-04T11:31:29.646Z,2084
2017-10-04T11:32:38.333Z,2072
2017-10-04T11:33:47.313Z,2188
2017-10-04T11:34:56.639Z,2340
2017-10-04T11:36:05.666Z,2596
2017-10-04T11:37:14.950Z,2436
2017-10-04T11:38:24.306Z,2216
2017-10-04T11:39:33.642Z,2164
2017-10-04T11:40:42.936Z,2012
2017-10-04T11:41:52.103Z,1960
2017-10-04T11:43:00.754Z,1988
2017-10-04T11:44:10.412Z,1752
2017-10-04T11:45:19.079Z,1848
2017-10-04T11:46:28.112Z,1796
2017-10-04T11:47:38.039Z,1836
2017-10-04T11:48:47.028Z,1812
2017-10-04T11:49:55.682Z,1868
2017-10-04T11:51:04.988Z,1844
2017-10-04T11:52:14.283Z,1532
2017-10-04T11:53:23.114Z,1492
2017-10-04T11:54:32.423Z,1816
2017-10-04T11:55:41.737Z,1728
2017-10-04T11:56:50.427Z,1808
2017-10-04T11:57:59.406Z,1524
2017-10-04T11:59:08.097Z,1348
2017-10-04T12:00:16.797Z,1336
2017-10-04T12:01:25.773Z,1288
2017-10-04T12:02:34.782Z,1420
2017-10-04T12:03:43.792Z,1504
2017-10-04T12:04:53.073Z,1636
2017-10-04T12:06:01.869Z,1432
2017-10-04T12:07:11.917Z,1376
2017-10-04T12:08:21.643Z,1632
2017-10-04T12:09:31.529Z,1828
2017-10-04T12:10:41.126Z,1744
2017-10-04T12:11:50.481Z,1432
2017-10-04T12:13:00.103Z,1464
2017-10-04T12:14:08.855Z,1528
2017-10-04T12:15:18.765Z,1700
2017-10-04T12:16:27.431Z,1752
2017-10-04T12:17:36.160Z,1696
2017-10-04T12:18:44.824Z,1632
2017-10-04T12:19:54.432Z,1676
2017-10-04T12:21:04.056Z,1520
2017-10-04T12:22:12.888Z,1352
2017-10-04T12:23:21.870Z,1368
2017-10-04T12:24:31.172Z,1460
2017-10-04T12:25:40.474Z,1372
2017-10-04T12:26:49.456Z,1444
2017-10-04T12:27:59.170Z,1508
2017-10-04T12:29:08.508Z,1632
2017-10-04T12:30:17.479Z,1456
2017-10-04T12:31:26.827Z,1488
2017-10-04T12:32:36.642Z,1460
2017-10-04T12:33:45.610Z,1524
2017-10-04T12:34:54.269Z,1732
2017-10-04T12:36:03.563Z,1820
2017-10-04T12:37:13.190Z,2028
2017-10-04T12:38:22.491Z,1812
2017-10-04T12:39:31.941Z,1740
2017-10-04T12:40:41.545Z,1812
2017-10-04T12:41:51.149Z,1756
2017-10-04T12:43:00.117Z,1752
2017-10-04T12:44:09.716Z,1840
2017-10-04T12:45:18.681Z,1444
2017-10-04T12:46:27.344Z,1472
2017-10-04T12:47:36.361Z,1348
2017-10-04T12:48:45.333Z,1212
2017-10-04T12:49:53.988Z,1156
2017-10-04T12:51:02.715Z,1260
2017-10-04T12:52:11.371Z,1512
2017-10-04T12:53:20.676Z,1496
2017-10-04T12:54:30.281Z,1648
2017-10-04T12:55:38.934Z,1740
2017-10-04T12:56:47.737Z,1808
2017-10-04T12:57:57.343Z,1880
2017-10-04T12:59:06.627Z,1892
2017-10-04T13:00:15.304Z,1872
2017-10-04T13:01:23.970Z,1788
2017-10-04T13:03:41.308Z,1596
2017-10-04T13:04:49.957Z,1660
2017-10-04T13:05:59.273Z,1592
2017-10-04T13:07:08.556Z,1416
2017-10-04T13:08:17.848Z,1220
2017-10-04T13:09:27.139Z,1184
2017-10-04T13:10:35.805Z,1448
2017-10-04T13:11:45.090Z,1460
2017-10-04T13:12:54.399Z,1560
2017-10-04T13:14:03.068Z,1664
2017-10-04T13:15:11.728Z,1724
2017-10-04T13:16:20.729Z,1708
2017-10-04T13:17:30.709Z,1676
2017-10-04T13:18:40.009Z,1636
2017-10-04T13:19:49.296Z,1596
2017-10-04T13:20:58.265Z,1580
2017-10-04T13:22:07.261Z,1568
2017-10-04T13:23:16.566Z,1552
2017-10-04T13:24:25.527Z,1540
2017-10-04T13:25:34.500Z,1556
2017-10-04T13:26:43.456Z,1576
2017-10-04T13:27:52.756Z,1576
2017-10-04T13:29:02.055Z,1596
2017-10-04T13:30:11.661Z,1648
2017-10-04T13:31:20.502Z,1712
2017-10-04T13:32:30.169Z,1708
2017-10-04T13:33:39.828Z,1708
2017-10-04T13:34:49.177Z,1696
2017-10-04T13:35:57.870Z,1668
2017-10-04T13:37:07.194Z,1688
2017-10-04T13:38:16.216Z,1692
2017-10-04T13:39:25.500Z,1708
2017-10-04T13:40:34.850Z,1680
2017-10-04T13:41:43.831Z,1644
2017-10-04T13:42:52.497Z,1648
2017-10-04T13:44:01.518Z,1656
2017-10-04T13:45:10.178Z,1672
2017-10-04T13:46:18.903Z,1676
2017-10-04T13:47:28.552Z,1688
2017-10-04T13:48:37.537Z,1664
2017-10-04T13:49:46.628Z,1636
2017-10-04T13:50:56.063Z,1584
2017-10-04T13:52:05.381Z,1520
2017-10-04T13:53:14.665Z,1444
2017-10-04T13:54:23.952Z,1420
2017-10-04T13:55:33.588Z,1392
2017-10-04T13:56:43.178Z,1352
2017-10-04T13:57:52.196Z,1380
2017-10-04T13:59:01.534Z,1292
2017-10-04T14:00:10.634Z,1336
2017-10-04T14:01:19.315Z,1316
2017-10-04T14:02:28.386Z,1284
2017-10-04T14:03:37.444Z,1236
2017-10-04T14:04:46.450Z,1220
2017-10-04T14:05:55.115Z,1212
2017-10-04T14:07:04.718Z,1248
2017-10-04T14:08:13.686Z,1268
2017-10-04T14:09:22.664Z,1288
2017-10-04T14:10:31.939Z,1304
2017-10-04T14:11:40.610Z,1304
2017-10-04T14:12:49.891Z,1280
2017-10-04T14:13:58.545Z,1232
2017-10-04T14:15:08.160Z,1188
2017-10-04T14:16:16.817Z,1176
2017-10-04T14:17:26.421Z,1196
2017-10-04T14:18:35.077Z,1196
2017-10-04T14:19:44.045Z,1184
2017-10-04T14:20:53.331Z,1168
2017-10-04T14:22:02.309Z,1140
2017-10-04T14:23:11.285Z,1104
2017-10-04T14:24:20.305Z,1052
2017-10-04T14:25:29.275Z,988
2017-10-04T14:26:37.929Z,964
2017-10-04T14:27:47.237Z,928
2017-10-04T14:28:56.507Z,900
2017-10-04T14:30:05.168Z,892
2017-10-04T14:31:14.164Z,896
2017-10-04T14:32:23.777Z,904
2017-10-04T14:33:32.752Z,900
2017-10-04T14:34:42.361Z,892
2017-10-04T14:35:51.347Z,876
2017-10-04T14:37:00.656Z,848
2017-10-04T14:38:09.652Z,804
2017-10-04T14:39:18.327Z,788
2017-10-04T14:40:27.661Z,800
2017-10-04T14:41:39.588Z,756
2017-10-04T14:42:49.784Z,720
2017-10-04T14:43:59.084Z,704
2017-10-04T14:45:07.750Z,688
2017-10-04T14:46:17.673Z,668
2017-10-04T14:47:26.353Z,640
2017-10-04T14:48:35.036Z,632
2017-10-04T14:49:44.354Z,644
2017-10-04T14:50:53.355Z,692
2017-10-04T14:52:02.037Z,688
2017-10-04T14:53:11.345Z,728
2017-10-04T14:54:21.489Z,724
2017-10-04T14:55:31.090Z,708
2017-10-04T14:56:39.814Z,728
2017-10-04T14:57:48.782Z,728
2017-10-04T14:58:57.766Z,680
2017-10-04T15:00:07.066Z,628
2017-10-04T15:01:16.383Z,612
2017-10-04T15:02:25.376Z,588
2017-10-04T15:03:34.065Z,540
2017-10-04T15:04:43.068Z,512
2017-10-04T15:05:52.813Z,484
2017-10-04T15:07:02.256Z,436
2017-10-04T15:08:11.233Z,404
2017-10-04T15:09:20.207Z,380
2017-10-04T15:10:28.860Z,368
2017-10-04T15:11:38.162Z,400
2017-10-04T15:12:47.762Z,440
2017-10-04T15:13:56.737Z,468
2017-10-04T15:15:06.031Z,492
2017-10-04T15:16:15.003Z,516
2017-10-04T15:17:23.967Z,544
2017-10-04T15:18:33.596Z,504
2017-10-04T15:19:42.912Z,432
2017-10-04T15:20:52.219Z,384
2017-10-04T15:22:01.207Z,364
2017-10-04T15:23:10.489Z,360
2017-10-04T15:24:19.496Z,360
2017-10-04T15:25:28.802Z,364
2017-10-04T15:26:38.107Z,348
2017-10-04T15:27:47.788Z,340
2017-10-04T15:28:57.419Z,320
2017-10-04T15:30:07.010Z,304
2017-10-04T15:31:16.494Z,300
2017-10-04T15:32:26.682Z,292
2017-10-04T15:33:36.075Z,300
2017-10-04T15:34:45.378Z,292
2017-10-04T15:35:54.422Z,284
2017-10-04T15:37:03.712Z,272
2017-10-04T15:38:13.040Z,256
2017-10-04T15:39:22.089Z,228
2017-10-04T15:40:31.392Z,216
2017-10-04T15:41:41.154Z,208
2017-10-04T15:42:50.500Z,204
2017-10-04T15:43:59.895Z,204
2017-10-04T15:45:09.180Z,204
2017-10-04T15:46:19.125Z,212
2017-10-04T15:47:28.443Z,236
2017-10-04T15:48:37.519Z,252
2017-10-04T15:49:46.220Z,280
2017-10-04T15:50:55.902Z,296
2017-10-04T15:52:04.883Z,308
2017-10-04T15:53:14.479Z,308
2017-10-04T15:54:23.223Z,292
2017-10-04T15:55:31.882Z,288
2017-10-04T15:56:40.861Z,288
2017-10-04T15:57:50.192Z,284
2017-10-04T15:58:59.178Z,292
2017-10-04T16:00:08.488Z,296
2017-10-04T16:01:17.573Z,296